sensor_id;sensor_type;location;lat;lon;timestamp;P1;durP1;ratioP1;P2;durP2;ratioP2
15155;SDS011;7678;50.058;8.306;2022-08-19T00:01:55;19.00;;;16.83;;
15155;SDS011;7678;50.058;8.306;2022-08-19T00:04:26;18.00;;;15.97;;
15155;SDS011;7678;50.058;8.306;2022-08-19T00:06:56;19.37;;;16.20;;
15155;SDS011;7678;50.058;8.306;2022-08-19T00:09:26;21.93;;;16.53;;
15155;SDS011;7678;50.058;8.306;2022-08-19T00:11:55;21.00;;;17.33;;
15155;SDS011;7678;50.058;8.306;2022-08-19T00:14:24;19.43;;;16.37;;
15155;SDS011;7678;50.058;8.306;2022-08-19T00:16:53;19.13;;;15.93;;
15155;SDS011;7678;50.058;8.306;2022-08-19T00:19:23;18.77;;;16.77;;
15155;SDS011;7678;50.058;8.306;2022-08-19T00:21:54;20.33;;;16.47;;
15155;SDS011;7678;50.058;8.306;2022-08-19T00:24:22;18.03;;;15.97;;
15155;SDS011;7678;50.058;8.306;2022-08-19T00:26:52;18.73;;;16.17;;
15155;SDS011;7678;50.058;8.306;2022-08-19T00:29:22;20.37;;;16.10;;
15155;SDS011;7678;50.058;8.306;2022-08-19T00:31:51;18.00;;;16.07;;
15155;SDS011;7678;50.058;8.306;2022-08-19T00:34:21;16.87;;;15.07;;
15155;SDS011;7678;50.058;8.306;2022-08-19T00:36:49;17.03;;;15.27;;
15155;SDS011;7678;50.058;8.306;2022-08-19T00:39:17;18.17;;;15.67;;
15155;SDS011;7678;50.058;8.306;2022-08-19T00:41:48;17.37;;;15.57;;
15155;SDS011;7678;50.058;8.306;2022-08-19T00:44:22;16.77;;;14.97;;
15155;SDS011;7678;50.058;8.306;2022-08-19T00:46:53;19.50;;;16.23;;
15155;SDS011;7678;50.058;8.306;2022-08-19T00:49:24;17.60;;;15.27;;
15155;SDS011;7678;50.058;8.306;2022-08-19T00:51:56;18.10;;;16.20;;
15155;SDS011;7678;50.058;8.306;2022-08-19T00:54:28;17.73;;;15.20;;
15155;SDS011;7678;50.058;8.306;2022-08-19T00:57:01;17.17;;;15.37;;
15155;SDS011;7678;50.058;8.306;2022-08-19T00:59:36;17.17;;;15.00;;
15155;SDS011;7678;50.058;8.306;2022-08-19T01:02:27;18.23;;;14.77;;
15155;SDS011;7678;50.058;8.306;2022-08-19T01:04:57;18.73;;;15.87;;
15155;SDS011;7678;50.058;8.306;2022-08-19T01:07:28;18.57;;;15.43;;
15155;SDS011;7678;50.058;8.306;2022-08-19T01:10:04;18.07;;;14.87;;
15155;SDS011;7678;50.058;8.306;2022-08-19T01:12:34;18.47;;;14.80;;
15155;SDS011;7678;50.058;8.306;2022-08-19T01:15:04;15.80;;;14.10;;
15155;SDS011;7678;50.058;8.306;2022-08-19T01:17:34;15.83;;;14.10;;
15155;SDS011;7678;50.058;8.306;2022-08-19T01:20:05;17.87;;;13.47;;
15155;SDS011;7678;50.058;8.306;2022-08-19T01:22:42;15.07;;;13.53;;
15155;SDS011;7678;50.058;8.306;2022-08-19T01:25:12;14.43;;;12.90;;
15155;SDS011;7678;50.058;8.306;2022-08-19T01:27:43;13.93;;;12.40;;
15155;SDS011;7678;50.058;8.306;2022-08-19T01:30:18;13.70;;;12.23;;
15155;SDS011;7678;50.058;8.306;2022-08-19T01:32:48;13.47;;;12.17;;
15155;SDS011;7678;50.058;8.306;2022-08-19T01:35:17;14.10;;;12.60;;
15155;SDS011;7678;50.058;8.306;2022-08-19T01:37:49;12.97;;;11.57;;
15155;SDS011;7678;50.058;8.306;2022-08-19T01:40:20;14.87;;;12.50;;
15155;SDS011;7678;50.058;8.306;2022-08-19T01:42:49;13.13;;;11.20;;
15155;SDS011;7678;50.058;8.306;2022-08-19T01:45:19;12.37;;;11.03;;
15155;SDS011;7678;50.058;8.306;2022-08-19T01:47:49;14.80;;;10.83;;
15155;SDS011;7678;50.058;8.306;2022-08-19T01:50:27;12.10;;;10.17;;
15155;SDS011;7678;50.058;8.306;2022-08-19T01:52:58;11.17;;;9.97;;
15155;SDS011;7678;50.058;8.306;2022-08-19T01:55:31;14.40;;;10.83;;
15155;SDS011;7678;50.058;8.306;2022-08-19T01:58:00;11.60;;;10.40;;
15155;SDS011;7678;50.058;8.306;2022-08-19T02:00:34;12.87;;;10.60;;
15155;SDS011;7678;50.058;8.306;2022-08-19T02:03:03;13.17;;;10.80;;
15155;SDS011;7678;50.058;8.306;2022-08-19T02:05:32;11.80;;;10.57;;
15155;SDS011;7678;50.058;8.306;2022-08-19T02:08:02;12.80;;;11.20;;
15155;SDS011;7678;50.058;8.306;2022-08-19T02:10:31;12.13;;;10.63;;
15155;SDS011;7678;50.058;8.306;2022-08-19T02:12:59;13.47;;;11.67;;
15155;SDS011;7678;50.058;8.306;2022-08-19T02:15:27;11.20;;;10.03;;
15155;SDS011;7678;50.058;8.306;2022-08-19T02:17:55;12.20;;;10.87;;
15155;SDS011;7678;50.058;8.306;2022-08-19T02:20:23;12.70;;;11.40;;
15155;SDS011;7678;50.058;8.306;2022-08-19T02:22:51;13.27;;;11.20;;
15155;SDS011;7678;50.058;8.306;2022-08-19T02:25:21;13.50;;;11.30;;
15155;SDS011;7678;50.058;8.306;2022-08-19T02:27:49;14.67;;;11.10;;
15155;SDS011;7678;50.058;8.306;2022-08-19T02:30:17;14.90;;;11.83;;
15155;SDS011;7678;50.058;8.306;2022-08-19T02:32:46;13.27;;;11.87;;
15155;SDS011;7678;50.058;8.306;2022-08-19T02:35:14;13.60;;;12.20;;
15155;SDS011;7678;50.058;8.306;2022-08-19T02:37:45;13.93;;;12.43;;
15155;SDS011;7678;50.058;8.306;2022-08-19T02:40:32;16.27;;;13.13;;
15155;SDS011;7678;50.058;8.306;2022-08-19T02:43:01;13.90;;;12.50;;
15155;SDS011;7678;50.058;8.306;2022-08-19T02:45:31;14.03;;;12.53;;
15155;SDS011;7678;50.058;8.306;2022-08-19T02:47:59;15.03;;;13.33;;
15155;SDS011;7678;50.058;8.306;2022-08-19T02:50:30;15.10;;;13.40;;
15155;SDS011;7678;50.058;8.306;2022-08-19T02:52:59;16.87;;;13.90;;
15155;SDS011;7678;50.058;8.306;2022-08-19T02:55:27;15.53;;;13.63;;
15155;SDS011;7678;50.058;8.306;2022-08-19T02:58:12;15.60;;;14.00;;
15155;SDS011;7678;50.058;8.306;2022-08-19T03:00:42;15.83;;;14.23;;
15155;SDS011;7678;50.058;8.306;2022-08-19T03:03:12;17.27;;;15.47;;
15155;SDS011;7678;50.058;8.306;2022-08-19T03:05:41;16.00;;;14.40;;
15155;SDS011;7678;50.058;8.306;2022-08-19T03:08:21;16.73;;;14.27;;
15155;SDS011;7678;50.058;8.306;2022-08-19T03:10:49;15.77;;;14.17;;
15155;SDS011;7678;50.058;8.306;2022-08-19T03:13:19;16.50;;;14.03;;
15155;SDS011;7678;50.058;8.306;2022-08-19T03:15:48;15.80;;;13.93;;
15155;SDS011;7678;50.058;8.306;2022-08-19T03:18:17;16.63;;;13.83;;
15155;SDS011;7678;50.058;8.306;2022-08-19T03:20:49;15.73;;;13.40;;
15155;SDS011;7678;50.058;8.306;2022-08-19T03:23:19;14.67;;;13.17;;
15155;SDS011;7678;50.058;8.306;2022-08-19T03:25:50;15.90;;;14.20;;
15155;SDS011;7678;50.058;8.306;2022-08-19T03:28:40;16.27;;;14.10;;
15155;SDS011;7678;50.058;8.306;2022-08-19T03:31:17;15.83;;;13.60;;
15155;SDS011;7678;50.058;8.306;2022-08-19T03:34:07;16.03;;;14.00;;
15155;SDS011;7678;50.058;8.306;2022-08-19T03:36:37;15.50;;;13.30;;
15155;SDS011;7678;50.058;8.306;2022-08-19T03:39:09;15.47;;;12.93;;
15155;SDS011;7678;50.058;8.306;2022-08-19T03:41:38;17.10;;;13.50;;
15155;SDS011;7678;50.058;8.306;2022-08-19T03:44:13;14.63;;;12.80;;
15155;SDS011;7678;50.058;8.306;2022-08-19T03:46:45;15.87;;;14.20;;
15155;SDS011;7678;50.058;8.306;2022-08-19T03:49:15;14.40;;;13.00;;
15155;SDS011;7678;50.058;8.306;2022-08-19T03:51:45;14.00;;;12.53;;
15155;SDS011;7678;50.058;8.306;2022-08-19T03:54:14;14.77;;;13.00;;
15155;SDS011;7678;50.058;8.306;2022-08-19T03:56:45;15.53;;;13.87;;
15155;SDS011;7678;50.058;8.306;2022-08-19T03:59:16;15.93;;;14.33;;
15155;SDS011;7678;50.058;8.306;2022-08-19T04:01:46;15.03;;;13.47;;
15155;SDS011;7678;50.058;8.306;2022-08-19T04:04:15;15.57;;;13.83;;
15155;SDS011;7678;50.058;8.306;2022-08-19T04:06:45;14.40;;;12.87;;
15155;SDS011;7678;50.058;8.306;2022-08-19T04:09:14;15.50;;;13.93;;
15155;SDS011;7678;50.058;8.306;2022-08-19T04:11:45;16.63;;;14.37;;
15155;SDS011;7678;50.058;8.306;2022-08-19T04:14:20;15.17;;;13.60;;
15155;SDS011;7678;50.058;8.306;2022-08-19T04:16:50;14.47;;;12.97;;
15155;SDS011;7678;50.058;8.306;2022-08-19T04:19:19;17.80;;;12.87;;
15155;SDS011;7678;50.058;8.306;2022-08-19T04:21:49;14.80;;;13.30;;
15155;SDS011;7678;50.058;8.306;2022-08-19T04:24:19;15.67;;;14.07;;
15155;SDS011;7678;50.058;8.306;2022-08-19T04:26:48;14.63;;;13.03;;
15155;SDS011;7678;50.058;8.306;2022-08-19T04:29:19;15.43;;;12.93;;
15155;SDS011;7678;50.058;8.306;2022-08-19T04:31:51;15.93;;;14.30;;
15155;SDS011;7678;50.058;8.306;2022-08-19T04:34:22;16.43;;;13.33;;
15155;SDS011;7678;50.058;8.306;2022-08-19T04:36:51;14.50;;;13.00;;
15155;SDS011;7678;50.058;8.306;2022-08-19T04:39:21;15.83;;;13.53;;
15155;SDS011;7678;50.058;8.306;2022-08-19T04:42:13;14.40;;;13.03;;
15155;SDS011;7678;50.058;8.306;2022-08-19T04:45:02;16.90;;;13.93;;
15155;SDS011;7678;50.058;8.306;2022-08-19T04:47:34;15.67;;;14.17;;
15155;SDS011;7678;50.058;8.306;2022-08-19T04:50:22;15.13;;;13.23;;
15155;SDS011;7678;50.058;8.306;2022-08-19T04:52:51;15.13;;;12.90;;
15155;SDS011;7678;50.058;8.306;2022-08-19T04:55:19;13.87;;;12.47;;
15155;SDS011;7678;50.058;8.306;2022-08-19T04:57:47;17.63;;;14.33;;
15155;SDS011;7678;50.058;8.306;2022-08-19T05:00:18;16.43;;;13.47;;
15155;SDS011;7678;50.058;8.306;2022-08-19T05:02:46;14.83;;;13.27;;
15155;SDS011;7678;50.058;8.306;2022-08-19T05:05:15;14.10;;;12.60;;
15155;SDS011;7678;50.058;8.306;2022-08-19T05:07:43;14.83;;;13.30;;
15155;SDS011;7678;50.058;8.306;2022-08-19T05:10:11;14.10;;;12.70;;
15155;SDS011;7678;50.058;8.306;2022-08-19T05:12:39;14.47;;;12.97;;
15155;SDS011;7678;50.058;8.306;2022-08-19T05:15:08;14.50;;;12.27;;
15155;SDS011;7678;50.058;8.306;2022-08-19T05:17:38;14.73;;;12.63;;
15155;SDS011;7678;50.058;8.306;2022-08-19T05:20:27;15.40;;;12.63;;
15155;SDS011;7678;50.058;8.306;2022-08-19T05:23:11;13.60;;;12.17;;
15155;SDS011;7678;50.058;8.306;2022-08-19T05:25:47;16.53;;;12.53;;
15155;SDS011;7678;50.058;8.306;2022-08-19T05:28:17;15.47;;;11.73;;
15155;SDS011;7678;50.058;8.306;2022-08-19T05:30:45;13.83;;;12.27;;
15155;SDS011;7678;50.058;8.306;2022-08-19T05:33:16;13.43;;;12.13;;
15155;SDS011;7678;50.058;8.306;2022-08-19T05:35:44;14.53;;;12.37;;
15155;SDS011;7678;50.058;8.306;2022-08-19T05:38:14;13.87;;;12.47;;
15155;SDS011;7678;50.058;8.306;2022-08-19T05:40:43;12.97;;;11.67;;
15155;SDS011;7678;50.058;8.306;2022-08-19T05:43:15;13.23;;;11.87;;
15155;SDS011;7678;50.058;8.306;2022-08-19T05:45:43;13.60;;;12.30;;
15155;SDS011;7678;50.058;8.306;2022-08-19T05:48:12;14.17;;;12.63;;
15155;SDS011;7678;50.058;8.306;2022-08-19T05:50:47;12.40;;;11.20;;
15155;SDS011;7678;50.058;8.306;2022-08-19T05:53:17;15.23;;;12.70;;
15155;SDS011;7678;50.058;8.306;2022-08-19T05:55:47;17.67;;;12.40;;
15155;SDS011;7678;50.058;8.306;2022-08-19T05:58:15;12.80;;;11.53;;
15155;SDS011;7678;50.058;8.306;2022-08-19T06:00:48;13.00;;;11.70;;
15155;SDS011;7678;50.058;8.306;2022-08-19T06:03:16;14.07;;;10.57;;
15155;SDS011;7678;50.058;8.306;2022-08-19T06:05:44;12.73;;;10.90;;
15155;SDS011;7678;50.058;8.306;2022-08-19T06:08:19;12.40;;;10.60;;
15155;SDS011;7678;50.058;8.306;2022-08-19T06:13:46;11.97;;;10.33;;
15155;SDS011;7678;50.058;8.306;2022-08-19T06:16:25;11.27;;;9.20;;
15155;SDS011;7678;50.058;8.306;2022-08-19T06:18:54;11.23;;;9.50;;
15155;SDS011;7678;50.058;8.306;2022-08-19T06:21:24;10.13;;;9.20;;
15155;SDS011;7678;50.058;8.306;2022-08-19T06:23:56;11.27;;;8.70;;
15155;SDS011;7678;50.058;8.306;2022-08-19T06:26:24;11.93;;;8.70;;
15155;SDS011;7678;50.058;8.306;2022-08-19T06:28:53;9.77;;;7.50;;
15155;SDS011;7678;50.058;8.306;2022-08-19T06:31:23;13.73;;;8.40;;
15155;SDS011;7678;50.058;8.306;2022-08-19T06:33:53;7.63;;;6.97;;
15155;SDS011;7678;50.058;8.306;2022-08-19T06:36:22;9.13;;;8.17;;
15155;SDS011;7678;50.058;8.306;2022-08-19T06:38:53;9.30;;;7.93;;
15155;SDS011;7678;50.058;8.306;2022-08-19T06:41:24;8.43;;;7.53;;
15155;SDS011;7678;50.058;8.306;2022-08-19T06:43:52;10.27;;;7.27;;
15155;SDS011;7678;50.058;8.306;2022-08-19T06:46:21;8.47;;;6.90;;
15155;SDS011;7678;50.058;8.306;2022-08-19T06:48:50;10.40;;;7.63;;
15155;SDS011;7678;50.058;8.306;2022-08-19T06:51:20;8.00;;;7.20;;
15155;SDS011;7678;50.058;8.306;2022-08-19T06:53:51;8.93;;;8.00;;
15155;SDS011;7678;50.058;8.306;2022-08-19T06:56:28;10.23;;;7.80;;
15155;SDS011;7678;50.058;8.306;2022-08-19T06:59:00;9.37;;;7.80;;
15155;SDS011;7678;50.058;8.306;2022-08-19T07:01:33;9.17;;;7.80;;
15155;SDS011;7678;50.058;8.306;2022-08-19T07:04:04;12.60;;;8.27;;
15155;SDS011;7678;50.058;8.306;2022-08-19T07:06:37;7.53;;;6.83;;
15155;SDS011;7678;50.058;8.306;2022-08-19T07:09:11;10.80;;;9.10;;
15155;SDS011;7678;50.058;8.306;2022-08-19T07:11:57;9.93;;;7.87;;
15155;SDS011;7678;50.058;8.306;2022-08-19T07:14:26;10.37;;;8.83;;
15155;SDS011;7678;50.058;8.306;2022-08-19T07:16:55;9.83;;;8.83;;
15155;SDS011;7678;50.058;8.306;2022-08-19T07:19:24;7.97;;;7.07;;
15155;SDS011;7678;50.058;8.306;2022-08-19T07:22:00;13.37;;;9.13;;
15155;SDS011;7678;50.058;8.306;2022-08-19T07:24:30;11.30;;;8.00;;
15155;SDS011;7678;50.058;8.306;2022-08-19T07:27:02;11.80;;;9.60;;
15155;SDS011;7678;50.058;8.306;2022-08-19T07:29:38;11.27;;;9.07;;
15155;SDS011;7678;50.058;8.306;2022-08-19T07:32:06;13.63;;;9.50;;
15155;SDS011;7678;50.058;8.306;2022-08-19T07:34:38;13.83;;;10.00;;
15155;SDS011;7678;50.058;8.306;2022-08-19T07:37:08;11.37;;;9.67;;
15155;SDS011;7678;50.058;8.306;2022-08-19T07:39:36;9.73;;;8.73;;
15155;SDS011;7678;50.058;8.306;2022-08-19T07:42:08;13.70;;;9.30;;
15155;SDS011;7678;50.058;8.306;2022-08-19T07:44:39;10.87;;;9.13;;
15155;SDS011;7678;50.058;8.306;2022-08-19T07:47:16;11.90;;;9.20;;
15155;SDS011;7678;50.058;8.306;2022-08-19T07:50:07;10.30;;;8.47;;
15155;SDS011;7678;50.058;8.306;2022-08-19T07:52:38;12.63;;;9.80;;
15155;SDS011;7678;50.058;8.306;2022-08-19T07:55:07;10.77;;;9.53;;
15155;SDS011;7678;50.058;8.306;2022-08-19T07:57:58;16.30;;;9.80;;
15155;SDS011;7678;50.058;8.306;2022-08-19T08:00:28;9.07;;;8.13;;
15155;SDS011;7678;50.058;8.306;2022-08-19T08:02:56;9.03;;;8.10;;
15155;SDS011;7678;50.058;8.306;2022-08-19T08:05:24;12.20;;;7.70;;
15155;SDS011;7678;50.058;8.306;2022-08-19T08:08:10;12.77;;;8.67;;
15155;SDS011;7678;50.058;8.306;2022-08-19T08:11:13;12.00;;;9.03;;
15155;SDS011;7678;50.058;8.306;2022-08-19T08:13:46;9.77;;;8.70;;
15155;SDS011;7678;50.058;8.306;2022-08-19T08:16:29;11.07;;;9.50;;
15155;SDS011;7678;50.058;8.306;2022-08-19T08:18:59;11.50;;;9.17;;
15155;SDS011;7678;50.058;8.306;2022-08-19T08:21:37;11.40;;;8.90;;
15155;SDS011;7678;50.058;8.306;2022-08-19T08:24:10;11.37;;;10.17;;
15155;SDS011;7678;50.058;8.306;2022-08-19T08:26:38;10.87;;;8.83;;
15155;SDS011;7678;50.058;8.306;2022-08-19T08:29:18;11.83;;;10.13;;
15155;SDS011;7678;50.058;8.306;2022-08-19T08:31:46;13.93;;;11.13;;
15155;SDS011;7678;50.058;8.306;2022-08-19T08:34:25;12.50;;;11.13;;
15155;SDS011;7678;50.058;8.306;2022-08-19T08:36:53;13.67;;;10.07;;
15155;SDS011;7678;50.058;8.306;2022-08-19T08:39:21;12.67;;;10.90;;
15155;SDS011;7678;50.058;8.306;2022-08-19T08:41:51;13.50;;;12.17;;
15155;SDS011;7678;50.058;8.306;2022-08-19T08:44:28;16.63;;;14.87;;
15155;SDS011;7678;50.058;8.306;2022-08-19T08:47:09;15.23;;;13.53;;
15155;SDS011;7678;50.058;8.306;2022-08-19T08:49:41;14.13;;;12.70;;
15155;SDS011;7678;50.058;8.306;2022-08-19T08:52:18;18.97;;;16.17;;
15155;SDS011;7678;50.058;8.306;2022-08-19T08:54:50;20.47;;;16.53;;
15155;SDS011;7678;50.058;8.306;2022-08-19T08:57:23;16.97;;;15.17;;
15155;SDS011;7678;50.058;8.306;2022-08-19T09:00:08;19.53;;;15.87;;
15155;SDS011;7678;50.058;8.306;2022-08-19T09:02:42;17.40;;;14.37;;
15155;SDS011;7678;50.058;8.306;2022-08-19T09:05:16;18.43;;;15.73;;
15155;SDS011;7678;50.058;8.306;2022-08-19T09:07:50;18.20;;;16.07;;
15155;SDS011;7678;50.058;8.306;2022-08-19T09:10:28;16.73;;;14.10;;
15155;SDS011;7678;50.058;8.306;2022-08-19T09:13:12;21.53;;;13.60;;
15155;SDS011;7678;50.058;8.306;2022-08-19T09:15:58;14.87;;;13.20;;
15155;SDS011;7678;50.058;8.306;2022-08-19T09:18:38;13.73;;;12.33;;
15155;SDS011;7678;50.058;8.306;2022-08-19T09:21:12;12.87;;;11.53;;
15155;SDS011;7678;50.058;8.306;2022-08-19T09:23:42;12.97;;;11.17;;
15155;SDS011;7678;50.058;8.306;2022-08-19T09:26:13;14.43;;;12.70;;
15155;SDS011;7678;50.058;8.306;2022-08-19T09:28:46;14.63;;;13.23;;
15155;SDS011;7678;50.058;8.306;2022-08-19T09:31:23;15.47;;;12.83;;
15155;SDS011;7678;50.058;8.306;2022-08-19T09:33:53;15.30;;;13.90;;
15155;SDS011;7678;50.058;8.306;2022-08-19T09:36:24;15.23;;;13.83;;
15155;SDS011;7678;50.058;8.306;2022-08-19T09:39:00;16.90;;;15.10;;
15155;SDS011;7678;50.058;8.306;2022-08-19T09:41:29;16.73;;;14.43;;
15155;SDS011;7678;50.058;8.306;2022-08-19T09:43:59;16.73;;;15.10;;
15155;SDS011;7678;50.058;8.306;2022-08-19T09:46:29;17.37;;;15.40;;
15155;SDS011;7678;50.058;8.306;2022-08-19T09:48:59;17.27;;;15.30;;
15155;SDS011;7678;50.058;8.306;2022-08-19T09:51:32;17.60;;;15.73;;
15155;SDS011;7678;50.058;8.306;2022-08-19T09:54:01;16.73;;;15.23;;
15155;SDS011;7678;50.058;8.306;2022-08-19T09:56:31;16.50;;;15.00;;
15155;SDS011;7678;50.058;8.306;2022-08-19T09:59:01;18.53;;;16.00;;
15155;SDS011;7678;50.058;8.306;2022-08-19T10:01:35;19.43;;;16.33;;
15155;SDS011;7678;50.058;8.306;2022-08-19T10:04:11;15.93;;;14.37;;
15155;SDS011;7678;50.058;8.306;2022-08-19T10:06:45;16.50;;;14.80;;
15155;SDS011;7678;50.058;8.306;2022-08-19T10:09:19;14.90;;;13.40;;
15155;SDS011;7678;50.058;8.306;2022-08-19T10:12:02;14.13;;;12.67;;
15155;SDS011;7678;50.058;8.306;2022-08-19T10:14:39;14.80;;;13.23;;
15155;SDS011;7678;50.058;8.306;2022-08-19T10:17:09;16.63;;;12.83;;
15155;SDS011;7678;50.058;8.306;2022-08-19T10:19:45;14.07;;;12.70;;
15155;SDS011;7678;50.058;8.306;2022-08-19T10:22:21;12.33;;;11.13;;
15155;SDS011;7678;50.058;8.306;2022-08-19T10:24:51;12.17;;;10.87;;
15155;SDS011;7678;50.058;8.306;2022-08-19T10:27:19;9.33;;;7.33;;
15155;SDS011;7678;50.058;8.306;2022-08-19T10:29:48;8.60;;;7.80;;
15155;SDS011;7678;50.058;8.306;2022-08-19T10:32:17;7.37;;;6.67;;
15155;SDS011;7678;50.058;8.306;2022-08-19T10:34:59;6.47;;;5.87;;
15155;SDS011;7678;50.058;8.306;2022-08-19T10:37:30;7.47;;;5.80;;
15155;SDS011;7678;50.058;8.306;2022-08-19T10:40:02;7.37;;;6.70;;
15155;SDS011;7678;50.058;8.306;2022-08-19T10:42:31;8.37;;;5.50;;
15155;SDS011;7678;50.058;8.306;2022-08-19T10:44:59;6.90;;;6.20;;
15155;SDS011;7678;50.058;8.306;2022-08-19T10:47:31;6.47;;;5.30;;
15155;SDS011;7678;50.058;8.306;2022-08-19T10:49:59;7.00;;;5.53;;
15155;SDS011;7678;50.058;8.306;2022-08-19T10:52:46;8.43;;;5.70;;
15155;SDS011;7678;50.058;8.306;2022-08-19T10:55:16;6.00;;;5.20;;
15155;SDS011;7678;50.058;8.306;2022-08-19T10:58:10;6.63;;;5.43;;
15155;SDS011;7678;50.058;8.306;2022-08-19T11:00:41;5.57;;;5.07;;
15155;SDS011;7678;50.058;8.306;2022-08-19T11:03:11;7.83;;;5.50;;
15155;SDS011;7678;50.058;8.306;2022-08-19T11:05:39;5.90;;;5.40;;
15155;SDS011;7678;50.058;8.306;2022-08-19T11:08:08;4.90;;;4.40;;
15155;SDS011;7678;50.058;8.306;2022-08-19T11:10:49;5.73;;;5.07;;
15155;SDS011;7678;50.058;8.306;2022-08-19T11:13:27;6.20;;;5.60;;
15155;SDS011;7678;50.058;8.306;2022-08-19T11:15:56;6.17;;;5.57;;
15155;SDS011;7678;50.058;8.306;2022-08-19T11:18:33;6.63;;;5.93;;
15155;SDS011;7678;50.058;8.306;2022-08-19T11:21:07;7.20;;;5.63;;
15155;SDS011;7678;50.058;8.306;2022-08-19T11:23:36;5.97;;;5.40;;
15155;SDS011;7678;50.058;8.306;2022-08-19T11:26:07;8.53;;;5.50;;
15155;SDS011;7678;50.058;8.306;2022-08-19T11:28:35;8.07;;;5.23;;
15155;SDS011;7678;50.058;8.306;2022-08-19T11:31:08;5.90;;;5.20;;
15155;SDS011;7678;50.058;8.306;2022-08-19T11:33:39;4.47;;;4.07;;
15155;SDS011;7678;50.058;8.306;2022-08-19T11:36:13;6.17;;;4.60;;
15155;SDS011;7678;50.058;8.306;2022-08-19T11:38:41;6.17;;;4.50;;
15155;SDS011;7678;50.058;8.306;2022-08-19T11:41:10;4.97;;;4.57;;
15155;SDS011;7678;50.058;8.306;2022-08-19T11:43:38;5.63;;;4.03;;
15155;SDS011;7678;50.058;8.306;2022-08-19T11:46:06;4.13;;;3.70;;
15155;SDS011;7678;50.058;8.306;2022-08-19T11:48:37;4.57;;;4.17;;
15155;SDS011;7678;50.058;8.306;2022-08-19T11:51:07;5.83;;;3.37;;
15155;SDS011;7678;50.058;8.306;2022-08-19T11:53:42;4.27;;;3.80;;
15155;SDS011;7678;50.058;8.306;2022-08-19T11:56:10;4.50;;;4.10;;
15155;SDS011;7678;50.058;8.306;2022-08-19T11:58:39;4.27;;;3.87;;
15155;SDS011;7678;50.058;8.306;2022-08-19T12:01:08;4.43;;;3.90;;
15155;SDS011;7678;50.058;8.306;2022-08-19T12:03:39;7.93;;;3.80;;
15155;SDS011;7678;50.058;8.306;2022-08-19T12:06:08;3.97;;;3.40;;
15155;SDS011;7678;50.058;8.306;2022-08-19T12:08:39;3.57;;;3.23;;
15155;SDS011;7678;50.058;8.306;2022-08-19T12:11:07;3.97;;;3.40;;
15155;SDS011;7678;50.058;8.306;2022-08-19T12:13:36;4.20;;;3.80;;
15155;SDS011;7678;50.058;8.306;2022-08-19T12:16:07;5.97;;;3.23;;
15155;SDS011;7678;50.058;8.306;2022-08-19T12:18:40;3.87;;;3.50;;
15155;SDS011;7678;50.058;8.306;2022-08-19T12:21:11;3.37;;;3.07;;
15155;SDS011;7678;50.058;8.306;2022-08-19T12:23:40;3.27;;;2.97;;
15155;SDS011;7678;50.058;8.306;2022-08-19T12:26:09;3.23;;;2.93;;
15155;SDS011;7678;50.058;8.306;2022-08-19T12:28:37;3.30;;;3.00;;
15155;SDS011;7678;50.058;8.306;2022-08-19T12:31:06;3.33;;;3.03;;
15155;SDS011;7678;50.058;8.306;2022-08-19T12:33:34;4.13;;;3.13;;
15155;SDS011;7678;50.058;8.306;2022-08-19T12:36:05;3.40;;;3.10;;
15155;SDS011;7678;50.058;8.306;2022-08-19T12:38:36;3.60;;;3.30;;
15155;SDS011;7678;50.058;8.306;2022-08-19T12:41:05;3.67;;;2.83;;
15155;SDS011;7678;50.058;8.306;2022-08-19T12:43:34;3.83;;;3.33;;
15155;SDS011;7678;50.058;8.306;2022-08-19T12:46:03;3.73;;;3.20;;
15155;SDS011;7678;50.058;8.306;2022-08-19T12:48:36;6.13;;;3.00;;
15155;SDS011;7678;50.058;8.306;2022-08-19T12:51:08;3.23;;;3.00;;
15155;SDS011;7678;50.058;8.306;2022-08-19T12:53:38;3.23;;;2.93;;
15155;SDS011;7678;50.058;8.306;2022-08-19T12:56:07;5.50;;;3.07;;
15155;SDS011;7678;50.058;8.306;2022-08-19T12:58:38;3.50;;;3.20;;
15155;SDS011;7678;50.058;8.306;2022-08-19T13:01:14;3.07;;;2.87;;
15155;SDS011;7678;50.058;8.306;2022-08-19T13:03:48;9.87;;;2.83;;
15155;SDS011;7678;50.058;8.306;2022-08-19T13:06:17;3.63;;;3.07;;
15155;SDS011;7678;50.058;8.306;2022-08-19T13:08:45;3.37;;;3.07;;
15155;SDS011;7678;50.058;8.306;2022-08-19T13:11:14;4.87;;;3.10;;
15155;SDS011;7678;50.058;8.306;2022-08-19T13:13:46;3.10;;;2.80;;
15155;SDS011;7678;50.058;8.306;2022-08-19T13:16:20;3.03;;;2.80;;
15155;SDS011;7678;50.058;8.306;2022-08-19T13:18:49;3.20;;;2.90;;
15155;SDS011;7678;50.058;8.306;2022-08-19T13:21:20;3.67;;;2.63;;
15155;SDS011;7678;50.058;8.306;2022-08-19T13:23:50;5.03;;;3.50;;
15155;SDS011;7678;50.058;8.306;2022-08-19T13:26:19;3.30;;;2.43;;
15155;SDS011;7678;50.058;8.306;2022-08-19T13:28:48;3.93;;;3.30;;
15155;SDS011;7678;50.058;8.306;2022-08-19T13:31:34;4.03;;;3.30;;
15155;SDS011;7678;50.058;8.306;2022-08-19T13:34:25;3.23;;;2.67;;
15155;SDS011;7678;50.058;8.306;2022-08-19T13:36:58;2.80;;;2.60;;
15155;SDS011;7678;50.058;8.306;2022-08-19T13:39:29;4.43;;;3.17;;
15155;SDS011;7678;50.058;8.306;2022-08-19T13:41:58;5.07;;;4.40;;
15155;SDS011;7678;50.058;8.306;2022-08-19T13:44:27;7.40;;;4.67;;
15155;SDS011;7678;50.058;8.306;2022-08-19T13:46:59;5.53;;;4.70;;
15155;SDS011;7678;50.058;8.306;2022-08-19T13:49:33;5.30;;;4.40;;
15155;SDS011;7678;50.058;8.306;2022-08-19T13:52:04;4.43;;;4.03;;
15155;SDS011;7678;50.058;8.306;2022-08-19T13:54:33;4.60;;;4.20;;
15155;SDS011;7678;50.058;8.306;2022-08-19T13:57:01;4.37;;;3.80;;
15155;SDS011;7678;50.058;8.306;2022-08-19T13:59:30;5.23;;;4.30;;
15155;SDS011;7678;50.058;8.306;2022-08-19T14:01:59;5.03;;;4.53;;
15155;SDS011;7678;50.058;8.306;2022-08-19T14:04:27;5.20;;;4.80;;
15155;SDS011;7678;50.058;8.306;2022-08-19T14:06:55;6.83;;;4.80;;
15155;SDS011;7678;50.058;8.306;2022-08-19T14:09:25;4.63;;;3.93;;
15155;SDS011;7678;50.058;8.306;2022-08-19T14:11:53;5.30;;;4.20;;
15155;SDS011;7678;50.058;8.306;2022-08-19T14:14:21;4.13;;;3.63;;
15155;SDS011;7678;50.058;8.306;2022-08-19T14:16:49;3.83;;;3.10;;
15155;SDS011;7678;50.058;8.306;2022-08-19T14:19:18;9.13;;;4.10;;
15155;SDS011;7678;50.058;8.306;2022-08-19T14:21:46;4.15;;;3.75;;
15155;SDS011;7678;50.058;8.306;2022-08-19T14:24:15;4.53;;;3.80;;
15155;SDS011;7678;50.058;8.306;2022-08-19T14:26:44;5.90;;;4.40;;
15155;SDS011;7678;50.058;8.306;2022-08-19T14:29:12;4.13;;;3.83;;
15155;SDS011;7678;50.058;8.306;2022-08-19T14:31:40;4.00;;;3.70;;
15155;SDS011;7678;50.058;8.306;2022-08-19T14:34:09;4.33;;;3.60;;
15155;SDS011;7678;50.058;8.306;2022-08-19T14:36:40;4.50;;;3.40;;
15155;SDS011;7678;50.058;8.306;2022-08-19T14:39:08;4.20;;;3.47;;
15155;SDS011;7678;50.058;8.306;2022-08-19T14:41:39;4.47;;;3.77;;
15155;SDS011;7678;50.058;8.306;2022-08-19T14:44:12;4.37;;;3.97;;
15155;SDS011;7678;50.058;8.306;2022-08-19T14:46:40;3.67;;;3.37;;
15155;SDS011;7678;50.058;8.306;2022-08-19T14:49:14;4.60;;;3.67;;
15155;SDS011;7678;50.058;8.306;2022-08-19T14:51:44;4.20;;;3.90;;
15155;SDS011;7678;50.058;8.306;2022-08-19T14:54:13;4.30;;;3.90;;
15155;SDS011;7678;50.058;8.306;2022-08-19T14:56:41;5.10;;;4.03;;
15155;SDS011;7678;50.058;8.306;2022-08-19T14:59:09;4.43;;;4.03;;
15155;SDS011;7678;50.058;8.306;2022-08-19T15:01:38;4.67;;;4.17;;
15155;SDS011;7678;50.058;8.306;2022-08-19T15:04:07;4.20;;;3.80;;
15155;SDS011;7678;50.058;8.306;2022-08-19T15:06:35;3.93;;;3.57;;
15155;SDS011;7678;50.058;8.306;2022-08-19T15:09:03;3.53;;;3.23;;
15155;SDS011;7678;50.058;8.306;2022-08-19T15:11:32;4.30;;;3.83;;
15155;SDS011;7678;50.058;8.306;2022-08-19T15:14:00;4.47;;;3.80;;
15155;SDS011;7678;50.058;8.306;2022-08-19T15:16:29;4.03;;;3.70;;